الصفحة الرئيسية
METAR-TAF:

METAR-TAF

مطار :

مطار ورززات

ورززات, المغرب

دائرة عرض: 30-56N, خط طول: 006-54W, ارتفاع: 1139 متر

مراقبة الطقس الحالي

تاريخ ووقت الإصدار 1ساعة و 1 دقيقة قبل الساعة 08:00UTC
ريح 5 عقدة من الشرق
درجة الحرارة 17°درجة مئوية
الرطوبة 20%
ضغط 1016 hPa
الرؤية 10 كم أو أكثر
الغيوم لا تقل 1500 م ولا وجود لمزنة ركامية السحاب الأسود

METAR: GMMZ 040800Z 08005KT CAVOK 17/M06 Q1016 NOSIG

زمن: 10:01 (09:01 UTC)

توقعات

تاريخ ووقت الإصدار 4ساعات و 1 دقيقة قبل الساعة 05:00UTC
التوقعات صالحة من04 الساعة 06 UTC إلى 05 الساعة 12 UTC
ريح 2 عقدةمن اتجاهات متغيرة
الرؤية 10 كم أو أكثر
الغيوم لا تقل 1500 م ولا وجود لمزنة ركامية السحاب الأسود

TAF: GMMZ 040500Z 0406/0512 VRB02KT CAVOK

أرصاد الطقس والتوقعات من أكثر من 4000 مطار (تقارير الطقس للمطار METAR والتنبؤ بالطقس بالمطارTAF).

المحطات المتاحة هي النقط الصفراء والحمراء على الخريطة.

حرك المؤشر فوق النقطة لمعرفة اسم المحطة.

ثم انقر لمعرفة أرصاد وتوقعات الطقس.

لتغيير الخارطة: اضغط على الأزرار الخضراء مع رمز الصليب الأسود للتكبير. على الزر الأخضر مع شرطة للتصغير، أو على الأسهم الخضراء للخرائط المجاورة.


METAR-TAF: